Time;durP1;ratioP1;P1;durP2;ratioP2;P2;SDS_P1;SDS_P2;PMS_P1;PMS_P2;Temp;Humidity;BMP_temperature;BMP_pressure;BME280_temperature;BME280_humidity;BME280_pressure;Samples;Min_cycle;Max_cycle;Signal;HPM_P1;HPM_P2
2022/01/01 00:02:21;;;;;;;23.15;8.10;;;;;;;;;;4993369;28;20041;-67
2022/01/01 00:04:47;;;;;;;16.10;6.80;;;;;;;;;;4993135;28;20037;-67
2022/01/01 00:07:14;;;;;;;24.58;6.63;;;;;;;;;;4993506;28;20065;-67
2022/01/01 00:09:41;;;;;;;19.10;7.88;;;;;;;;;;4992823;28;20034;-67
2022/01/01 00:12:07;;;;;;;20.02;7.32;;;;;;;;;;4992515;28;20026;-67
2022/01/01 00:14:34;;;;;;;19.15;7.68;;;;;;;;;;4993015;28;20034;-67
2022/01/01 00:17:00;;;;;;;23.33;7.55;;;;;;;;;;4992817;28;20050;-67
2022/01/01 00:19:26;;;;;;;22.60;7.00;;;;;;;;;;4993053;28;20026;-67
2022/01/01 00:21:53;;;;;;;29.67;7.43;;;;;;;;;;4993104;28;20030;-67
2022/01/01 00:24:19;;;;;;;25.27;6.63;;;;;;;;;;4992759;28;20445;-67
2022/01/01 00:26:45;;;;;;;15.80;6.35;;;;;;;;;;4993115;28;20033;-67
2022/01/01 00:29:11;;;;;;;15.25;6.28;;;;;;;;;;4992809;28;20066;-67
2022/01/01 00:31:37;;;;;;;19.42;6.93;;;;;;;;;;4992349;28;20469;-67
2022/01/01 00:34:03;;;;;;;26.30;7.05;;;;;;;;;;4992803;28;20038;-67
2022/01/01 00:36:31;;;;;;;25.90;5.97;;;;;;;;;;4992636;28;20474;-67
2022/01/01 00:38:57;;;;;;;13.88;6.35;;;;;;;;;;4992451;28;20088;-68
2022/01/01 00:41:23;;;;;;;20.25;6.10;;;;;;;;;;4992890;28;20118;-67
2022/01/01 00:43:49;;;;;;;17.00;6.53;;;;;;;;;;4992791;28;20577;-67
2022/01/01 00:46:16;;;;;;;19.23;6.72;;;;;;;;;;4992727;28;20058;-67
2022/01/01 00:48:42;;;;;;;15.40;5.60;;;;;;;;;;4992324;28;20953;-67
2022/01/01 00:51:08;;;;;;;23.40;6.78;;;;;;;;;;4992637;28;20459;-67
2022/01/01 00:53:34;;;;;;;25.60;5.88;;;;;;;;;;4992200;28;20105;-67
2022/01/01 00:56:00;;;;;;;15.88;6.18;;;;;;;;;;4992657;28;20037;-67
2022/01/01 00:58:26;;;;;;;17.92;7.35;;;;;;;;;;4992488;28;20626;-67
2022/01/01 01:00:52;;;;;;;17.75;7.30;;;;;;;;;;4992433;28;20022;-67
2022/01/01 01:03:19;;;;;;;23.33;7.70;;;;;;;;;;4992455;28;20026;-67
2022/01/01 01:05:46;;;;;;;17.50;6.18;;;;;;;;;;4992347;28;20037;-67
2022/01/01 01:08:13;;;;;;;24.73;6.90;;;;;;;;;;4992343;28;20026;-67
2022/01/01 01:10:39;;;;;;;18.98;6.43;;;;;;;;;;4992176;28;20026;-67
2022/01/01 01:13:06;;;;;;;20.40;7.00;;;;;;;;;;4992634;28;20033;-67
2022/01/01 01:15:34;;;;;;;21.52;6.93;;;;;;;;;;4992393;28;20034;-67
2022/01/01 01:18:00;;;;;;;14.25;6.07;;;;;;;;;;4992442;28;20034;-67
2022/01/01 01:20:27;;;;;;;16.58;7.40;;;;;;;;;;4992489;28;20026;-67
2022/01/01 01:22:53;;;;;;;17.70;6.10;;;;;;;;;;4976533;28;20442;-67
2022/01/01 01:25:21;;;;;;;14.48;5.40;;;;;;;;;;4996417;28;20142;-67
2022/01/01 01:27:49;;;;;;;17.73;6.53;;;;;;;;;;4995805;28;20475;-67
2022/01/01 01:30:16;;;;;;;22.77;7.75;;;;;;;;;;4996130;28;20038;-67
2022/01/01 01:32:42;;;;;;;18.35;5.65;;;;;;;;;;4995944;28;20040;-67
2022/01/01 01:35:09;;;;;;;18.98;6.30;;;;;;;;;;4996137;28;20026;-67
2022/01/01 01:37:36;;;;;;;14.00;5.35;;;;;;;;;;4995521;28;20053;-67
2022/01/01 01:40:02;;;;;;;17.40;5.97;;;;;;;;;;4996167;28;20458;-67
2022/01/01 01:42:30;;;;;;;22.48;4.95;;;;;;;;;;4995750;28;20033;-67
2022/01/01 01:44:56;;;;;;;18.88;5.22;;;;;;;;;;4995593;28;20030;-67
2022/01/01 01:47:31;;;;;;;12.85;5.18;;;;;;;;;;4996078;28;20026;-67
2022/01/01 01:49:58;;;;;;;13.05;4.25;;;;;;;;;;4996016;28;20403;-67
2022/01/01 01:52:25;;;;;;;12.15;4.82;;;;;;;;;;4995407;28;20058;-67
2022/01/01 01:54:52;;;;;;;13.10;4.55;;;;;;;;;;4995706;28;20023;-67
2022/01/01 01:57:18;;;;;;;14.73;4.72;;;;;;;;;;4995737;28;20030;-67
2022/01/01 01:59:45;;;;;;;16.20;5.20;;;;;;;;;;4995135;28;20121;-67
2022/01/01 02:02:12;;;;;;;11.55;4.45;;;;;;;;;;4995695;28;20478;-67
2022/01/01 02:04:38;;;;;;;14.68;5.30;;;;;;;;;;4995196;28;20038;-67
2022/01/01 02:07:07;;;;;;;13.70;4.55;;;;;;;;;;4995265;28;20031;-67
2022/01/01 02:09:33;;;;;;;13.80;4.20;;;;;;;;;;4995318;28;20027;-67
2022/01/01 02:11:59;;;;;;;17.23;5.05;;;;;;;;;;4995425;28;20034;-67
2022/01/01 02:14:55;;;;;;;13.43;4.78;;;;;;;;;;4995292;28;20037;-67
2022/01/01 02:17:21;;;;;;;12.85;4.35;;;;;;;;;;4995224;28;20121;-67
2022/01/01 02:20:01;;;;;;;13.40;4.22;;;;;;;;;;4995129;28;20556;-67
2022/01/01 02:22:37;;;;;;;15.10;4.13;;;;;;;;;;4995098;28;20403;-67
2022/01/01 02:25:06;;;;;;;19.23;4.53;;;;;;;;;;4994961;28;20065;-67
2022/01/01 02:27:32;;;;;;;12.65;3.78;;;;;;;;;;4994831;28;20505;-67
2022/01/01 02:29:58;;;;;;;11.70;4.55;;;;;;;;;;4995124;28;20084;-67
2022/01/01 02:32:24;;;;;;;10.75;3.33;;;;;;;;;;4995151;28;20496;-67
2022/01/01 02:34:50;;;;;;;9.98;3.47;;;;;;;;;;4993821;28;20457;-67
2022/01/01 02:37:16;;;;;;;15.15;4.22;;;;;;;;;;4994771;28;20197;-67
2022/01/01 02:39:42;;;;;;;13.40;4.10;;;;;;;;;;4994693;28;20046;-67
2022/01/01 02:42:11;;;;;;;10.68;3.70;;;;;;;;;;4994841;28;20058;-67
2022/01/01 02:44:37;;;;;;;7.93;3.13;;;;;;;;;;4994711;28;20399;-67
2022/01/01 02:47:04;;;;;;;9.88;2.97;;;;;;;;;;4994401;28;20023;-67
2022/01/01 02:49:30;;;;;;;12.07;3.28;;;;;;;;;;4994619;28;20053;-67
2022/01/01 02:51:56;;;;;;;10.85;3.08;;;;;;;;;;4977258;28;20521;-67
2022/01/01 02:54:22;;;;;;;8.80;3.22;;;;;;;;;;4994766;28;20037;-67
2022/01/01 02:56:49;;;;;;;9.98;3.03;;;;;;;;;;4994409;28;20446;-67
2022/01/01 02:59:15;;;;;;;10.45;3.20;;;;;;;;;;4994457;28;20042;-67
2022/01/01 03:01:42;;;;;;;6.10;2.97;;;;;;;;;;4994306;28;20044;-67
2022/01/01 03:04:08;;;;;;;9.20;3.17;;;;;;;;;;4994296;28;20077;-67
2022/01/01 03:06:34;;;;;;;10.02;3.47;;;;;;;;;;4994463;28;20046;-67
2022/01/01 03:09:00;;;;;;;11.57;2.80;;;;;;;;;;4994402;28;20022;-67
2022/01/01 03:11:26;;;;;;;10.05;2.42;;;;;;;;;;4994565;28;20529;-67
2022/01/01 03:13:52;;;;;;;9.32;2.95;;;;;;;;;;4993951;28;20037;-67
2022/01/01 03:16:18;;;;;;;14.57;3.40;;;;;;;;;;4994382;28;20034;-67
2022/01/01 03:18:44;;;;;;;8.55;2.60;;;;;;;;;;4993886;28;20030;-67
2022/01/01 03:21:11;;;;;;;8.63;2.38;;;;;;;;;;4994421;28;20628;-67
2022/01/01 03:23:37;;;;;;;6.47;2.30;;;;;;;;;;4994108;28;20497;-67
2022/01/01 03:26:03;;;;;;;11.63;3.30;;;;;;;;;;4993463;28;20030;-67
2022/01/01 03:28:29;;;;;;;5.15;2.20;;;;;;;;;;4994149;28;20026;-67
2022/01/01 03:30:55;;;;;;;10.23;2.92;;;;;;;;;;4993755;28;20506;-67
2022/01/01 03:33:22;;;;;;;9.43;2.45;;;;;;;;;;4993605;28;20026;-67
2022/01/01 03:35:48;;;;;;;7.82;3.05;;;;;;;;;;4993437;28;20093;-67
2022/01/01 03:38:14;;;;;;;6.95;2.45;;;;;;;;;;4993802;28;20050;-67
2022/01/01 03:40:41;;;;;;;9.02;2.80;;;;;;;;;;4993768;28;20030;-67
2022/01/01 03:43:07;;;;;;;8.75;2.38;;;;;;;;;;4993531;28;20030;-67
2022/01/01 03:45:33;;;;;;;9.57;2.15;;;;;;;;;;4992972;28;20030;-67
2022/01/01 03:47:59;;;;;;;10.95;2.47;;;;;;;;;;4993149;28;20525;-67
2022/01/01 03:50:25;;;;;;;4.70;2.10;;;;;;;;;;4993626;28;20027;-67
2022/01/01 03:52:51;;;;;;;7.47;2.40;;;;;;;;;;4993283;28;20494;-67
2022/01/01 03:55:17;;;;;;;4.93;2.30;;;;;;;;;;4993731;28;20029;-67
2022/01/01 03:57:43;;;;;;;5.30;2.28;;;;;;;;;;4993469;28;20030;-67
2022/01/01 04:00:15;;;;;;;11.05;2.45;;;;;;;;;;4993511;28;20398;-67
2022/01/01 04:02:41;;;;;;;10.13;2.65;;;;;;;;;;4993292;28;20050;-67
2022/01/01 04:05:07;;;;;;;6.90;2.47;;;;;;;;;;4993356;28;20023;-67
2022/01/01 04:07:33;;;;;;;7.45;2.20;;;;;;;;;;4993043;28;20027;-67
2022/01/01 04:09:59;;;;;;;9.07;2.65;;;;;;;;;;4993022;28;20027;-67
2022/01/01 04:12:26;;;;;;;7.65;2.63;;;;;;;;;;4992900;28;20065;-67
2022/01/01 04:14:53;;;;;;;15.20;2.75;;;;;;;;;;4993108;28;20038;-67
2022/01/01 04:17:19;;;;;;;7.57;2.70;;;;;;;;;;4993069;28;20105;-67
2022/01/01 04:19:45;;;;;;;7.10;2.55;;;;;;;;;;4992883;28;20023;-67
2022/01/01 04:22:13;;;;;;;12.65;3.90;;;;;;;;;;4993142;28;20364;-67
2022/01/01 04:24:40;;;;;;;7.70;2.30;;;;;;;;;;4993034;28;20054;-67
2022/01/01 04:27:07;;;;;;;10.93;2.30;;;;;;;;;;4992489;28;20018;-67
2022/01/01 04:29:33;;;;;;;8.55;2.22;;;;;;;;;;4993373;28;20471;-67
2022/01/01 04:32:00;;;;;;;7.72;2.45;;;;;;;;;;4992382;28;20055;-67
2022/01/01 04:34:26;;;;;;;8.68;2.72;;;;;;;;;;4993012;28;20050;-67
2022/01/01 04:37:05;;;;;;;8.02;2.85;;;;;;;;;;4992642;28;20034;-67
2022/01/01 04:39:32;;;;;;;9.05;2.33;;;;;;;;;;4993063;28;20043;-67
2022/01/01 04:41:58;;;;;;;13.20;2.88;;;;;;;;;;4992296;28;20034;-67
2022/01/01 04:44:24;;;;;;;6.65;2.60;;;;;;;;;;4992723;28;20092;-67
2022/01/01 04:46:50;;;;;;;8.30;2.55;;;;;;;;;;4992321;28;20037;-67
2022/01/01 04:49:16;;;;;;;10.27;3.80;;;;;;;;;;4993068;28;20109;-67
2022/01/01 04:51:42;;;;;;;11.90;2.72;;;;;;;;;;4992547;28;20030;-67
2022/01/01 04:54:15;;;;;;;10.27;2.90;;;;;;;;;;4992767;28;20023;-67
2022/01/01 04:56:44;;;;;;;5.95;2.35;;;;;;;;;;4992350;28;20368;-67
2022/01/01 04:59:10;;;;;;;9.65;3.25;;;;;;;;;;4992607;28;20096;-67
2022/01/01 05:01:36;;;;;;;10.15;3.03;;;;;;;;;;4992378;28;20409;-67
2022/01/01 05:04:03;;;;;;;12.77;3.53;;;;;;;;;;4992274;28;20026;-67
2022/01/01 05:06:30;;;;;;;8.95;3.00;;;;;;;;;;4992610;28;20487;-67
2022/01/01 05:08:56;;;;;;;9.27;3.05;;;;;;;;;;4992322;28;20030;-67
2022/01/01 05:11:22;;;;;;;7.75;3.13;;;;;;;;;;4992739;28;20175;-67
2022/01/01 05:13:48;;;;;;;11.30;3.13;;;;;;;;;;4992474;28;20034;-67
2022/01/01 05:16:17;;;;;;;13.57;3.05;;;;;;;;;;4992200;28;20109;-67
2022/01/01 05:18:44;;;;;;;7.15;3.47;;;;;;;;;;4992340;28;20042;-67
2022/01/01 05:21:10;;;;;;;11.30;3.20;;;;;;;;;;4992235;28;20444;-67
2022/01/01 05:23:36;;;;;;;8.43;2.90;;;;;;;;;;4992455;28;20022;-67
2022/01/01 05:26:02;;;;;;;7.43;2.97;;;;;;;;;;4992274;28;20030;-67
2022/01/01 05:28:29;;;;;;;13.35;3.25;;;;;;;;;;4992314;28;20026;-67
2022/01/01 05:30:55;;;;;;;14.93;4.25;;;;;;;;;;4991743;28;20446;-67
2022/01/01 05:33:21;;;;;;;16.95;4.78;;;;;;;;;;4992409;28;20113;-67
2022/01/01 05:35:47;;;;;;;15.93;3.47;;;;;;;;;;4992189;28;20105;-67
2022/01/01 05:38:13;;;;;;;10.10;3.38;;;;;;;;;;4992157;28;20045;-67
2022/01/01 05:40:39;;;;;;;11.48;3.30;;;;;;;;;;4992457;28;20065;-67
2022/01/01 05:43:12;;;;;;;14.43;4.05;;;;;;;;;;4991981;28;20081;-67
2022/01/01 05:45:38;;;;;;;9.73;3.63;;;;;;;;;;4991939;28;20491;-67
2022/01/01 05:48:05;;;;;;;20.92;3.55;;;;;;;;;;4992035;28;20446;-67
2022/01/01 05:50:31;;;;;;;10.48;3.33;;;;;;;;;;4992190;28;20442;-67
2022/01/01 05:52:57;;;;;;;12.98;4.10;;;;;;;;;;4991947;28;20027;-67
2022/01/01 05:55:23;;;;;;;14.18;3.70;;;;;;;;;;4992390;28;20490;-67
2022/01/01 05:57:49;;;;;;;17.08;3.72;;;;;;;;;;4991582;28;20026;-67
2022/01/01 06:00:15;;;;;;;16.60;3.63;;;;;;;;;;4992009;28;20038;-67
2022/01/01 06:02:42;;;;;;;13.70;3.45;;;;;;;;;;4991715;28;20034;-67
2022/01/01 06:05:08;;;;;;;15.07;4.32;;;;;;;;;;4987379;28;20029;-67
2022/01/01 06:07:34;;;;;;;13.30;3.67;;;;;;;;;;4990745;28;20431;-67
2022/01/01 06:10:01;;;;;;;9.20;2.97;;;;;;;;;;4992668;28;20041;-67
2022/01/01 06:12:27;;;;;;;9.13;3.40;;;;;;;;;;4993963;28;20213;-67
2022/01/01 06:14:53;;;;;;;14.90;3.92;;;;;;;;;;4991528;28;20037;-67
2022/01/01 06:17:19;;;;;;;23.17;3.72;;;;;;;;;;4994443;28;20474;-67
2022/01/01 06:19:45;;;;;;;18.52;5.25;;;;;;;;;;4994066;28;20022;-67
2022/01/01 06:22:13;;;;;;;9.48;4.07;;;;;;;;;;4994036;28;20475;-67
2022/01/01 06:24:39;;;;;;;14.75;3.72;;;;;;;;;;4994216;28;20073;-67
2022/01/01 06:27:06;;;;;;;10.30;4.88;;;;;;;;;;4993503;28;20475;-66
2022/01/01 06:29:32;;;;;;;17.92;4.20;;;;;;;;;;4993934;28;20018;-66
2022/01/01 06:31:58;;;;;;;14.32;4.65;;;;;;;;;;4990518;28;20426;-66
2022/01/01 06:34:24;;;;;;;19.75;3.40;;;;;;;;;;4997123;28;20057;-67
2022/01/01 06:36:51;;;;;;;13.45;3.33;;;;;;;;;;4993867;28;20546;-67
2022/01/01 06:39:17;;;;;;;14.10;3.67;;;;;;;;;;4992457;28;20061;-66
2022/01/01 06:41:44;;;;;;;9.90;3.90;;;;;;;;;;4993290;28;20041;-66
2022/01/01 06:44:10;;;;;;;14.93;3.28;;;;;;;;;;4996082;28;20030;-66
2022/01/01 06:46:36;;;;;;;12.75;3.97;;;;;;;;;;4990724;28;20497;-66
2022/01/01 06:49:02;;;;;;;8.93;3.13;;;;;;;;;;4992357;28;20031;-66
2022/01/01 06:51:28;;;;;;;13.38;4.38;;;;;;;;;;4995244;28;20035;-66
2022/01/01 06:53:54;;;;;;;12.52;3.72;;;;;;;;;;4994177;28;20478;-66
2022/01/01 06:56:21;;;;;;;13.18;4.13;;;;;;;;;;4991685;28;20044;-66
2022/01/01 06:58:47;;;;;;;14.82;3.85;;;;;;;;;;4993355;28;20030;-67
2022/01/01 07:01:13;;;;;;;9.18;4.20;;;;;;;;;;4992182;28;20423;-66
2022/01/01 07:03:39;;;;;;;15.75;3.50;;;;;;;;;;4994041;28;20039;-67
2022/01/01 07:06:05;;;;;;;13.68;3.78;;;;;;;;;;4993613;28;20113;-67
2022/01/01 07:08:31;;;;;;;15.10;3.72;;;;;;;;;;4993265;28;20036;-67
2022/01/01 07:10:57;;;;;;;20.05;5.07;;;;;;;;;;4992798;28;20050;-67
2022/01/01 07:13:24;;;;;;;12.70;3.95;;;;;;;;;;4994137;28;20381;-66
2022/01/01 07:15:51;;;;;;;14.02;3.92;;;;;;;;;;4993992;28;20108;-66
2022/01/01 07:18:17;;;;;;;14.70;3.67;;;;;;;;;;4993175;28;20088;-67
2022/01/01 07:20:43;;;;;;;15.38;4.75;;;;;;;;;;4995515;28;20038;-67
2022/01/01 07:23:10;;;;;;;17.15;3.75;;;;;;;;;;4992599;28;20042;-66
2022/01/01 07:25:36;;;;;;;18.63;4.20;;;;;;;;;;4992647;28;20582;-67
2022/01/01 07:28:03;;;;;;;14.68;3.88;;;;;;;;;;4992767;28;20030;-66
2022/01/01 07:30:29;;;;;;;18.10;4.32;;;;;;;;;;4993028;28;20054;-67
2022/01/01 07:32:56;;;;;;;16.73;3.42;;;;;;;;;;4993274;28;20023;-67
2022/01/01 07:35:22;;;;;;;11.20;4.93;;;;;;;;;;4993298;28;20402;-66
2022/01/01 07:37:49;;;;;;;20.35;5.00;;;;;;;;;;4989681;28;20179;-67
2022/01/01 07:40:15;;;;;;;19.55;4.90;;;;;;;;;;4995259;28;20030;-67
2022/01/01 07:42:42;;;;;;;15.88;3.88;;;;;;;;;;4993046;28;20463;-67
2022/01/01 07:45:08;;;;;;;11.05;4.32;;;;;;;;;;4996348;28;20030;-67
2022/01/01 07:47:34;;;;;;;14.65;3.85;;;;;;;;;;4988768;28;20415;-66
2022/01/01 07:50:01;;;;;;;16.77;4.63;;;;;;;;;;4986657;28;20475;-66
2022/01/01 07:52:27;;;;;;;15.50;4.35;;;;;;;;;;4989218;28;20019;-66
2022/01/01 07:54:53;;;;;;;17.40;3.90;;;;;;;;;;4970421;28;20502;-66
2022/01/01 07:57:19;;;;;;;13.15;4.10;;;;;;;;;;4992428;28;20439;-69
2022/01/01 07:59:45;;;;;;;14.45;4.68;;;;;;;;;;4991350;28;20026;-66
2022/01/01 08:02:11;;;;;;;17.15;3.97;;;;;;;;;;4988921;28;20045;-65
2022/01/01 08:04:37;;;;;;;15.90;4.22;;;;;;;;;;4987333;28;20034;-65
2022/01/01 08:07:03;;;;;;;19.65;4.65;;;;;;;;;;4987619;28;20379;-66
2022/01/01 08:09:29;;;;;;;24.42;4.97;;;;;;;;;;4989822;28;20054;-65
2022/01/01 08:11:55;;;;;;;20.95;4.45;;;;;;;;;;4991718;28;20022;-65
2022/01/01 08:14:22;;;;;;;17.42;4.40;;;;;;;;;;4993068;28;20034;-65
2022/01/01 08:16:58;;;;;;;16.38;4.28;;;;;;;;;;4986086;28;20491;-65
2022/01/01 08:19:24;;;;;;;18.85;4.35;;;;;;;;;;4988903;28;20053;-65
2022/01/01 08:21:50;;;;;;;20.95;4.28;;;;;;;;;;4985458;28;20414;-65
2022/01/01 08:24:17;;;;;;;15.35;4.30;;;;;;;;;;4988441;28;20042;-66
2022/01/01 08:26:43;;;;;;;15.75;3.75;;;;;;;;;;4989203;28;20104;-67
2022/01/01 08:29:09;;;;;;;19.55;5.22;;;;;;;;;;4992634;28;20062;-67
2022/01/01 08:31:35;;;;;;;16.40;5.07;;;;;;;;;;4991362;28;20106;-67
2022/01/01 08:34:01;;;;;;;13.65;3.95;;;;;;;;;;4991992;28;20030;-67
2022/01/01 08:36:27;;;;;;;20.30;4.95;;;;;;;;;;4991072;28;20547;-67
2022/01/01 08:38:53;;;;;;;22.23;3.78;;;;;;;;;;4988394;28;20046;-67
2022/01/01 08:41:19;;;;;;;19.77;4.65;;;;;;;;;;4992922;28;20026;-67
2022/01/01 08:43:45;;;;;;;20.50;5.03;;;;;;;;;;4991865;28;20034;-67
2022/01/01 08:46:12;;;;;;;18.38;4.65;;;;;;;;;;4991611;28;20105;-67
2022/01/01 08:48:38;;;;;;;19.05;5.68;;;;;;;;;;4989907;28;20033;-67
2022/01/01 08:51:16;;;;;;;18.85;4.40;;;;;;;;;;4986785;28;20032;-67
2022/01/01 08:53:42;;;;;;;18.40;4.43;;;;;;;;;;4989620;28;20121;-67
2022/01/01 08:56:08;;;;;;;16.00;5.28;;;;;;;;;;4991189;28;20026;-67
2022/01/01 08:58:34;;;;;;;15.65;4.45;;;;;;;;;;4990632;28;20077;-67
2022/01/01 09:01:01;;;;;;;20.42;4.80;;;;;;;;;;4990047;28;20030;-67
2022/01/01 09:03:27;;;;;;;19.38;5.32;;;;;;;;;;4998028;28;20034;-67
2022/01/01 09:05:54;;;;;;;15.50;4.10;;;;;;;;;;4990760;28;20536;-67
2022/01/01 09:08:20;;;;;;;22.10;4.72;;;;;;;;;;4992391;28;20050;-67
2022/01/01 09:10:46;;;;;;;28.83;5.50;;;;;;;;;;5003888;28;20030;-67
2022/01/01 09:13:12;;;;;;;25.75;4.15;;;;;;;;;;4999592;28;20729;-67
2022/01/01 09:15:38;;;;;;;23.83;5.20;;;;;;;;;;4988555;28;20026;-67
2022/01/01 09:18:04;;;;;;;18.40;4.40;;;;;;;;;;4991097;28;20125;-67
2022/01/01 09:20:31;;;;;;;18.40;4.28;;;;;;;;;;4991850;28;20538;-67
2022/01/01 09:22:57;;;;;;;22.75;4.65;;;;;;;;;;4990220;28;20030;-67
2022/01/01 09:25:23;;;;;;;13.55;4.43;;;;;;;;;;4993956;28;20030;-67
2022/01/01 09:27:49;;;;;;;19.50;5.40;;;;;;;;;;4994479;28;20026;-67
2022/01/01 09:30:15;;;;;;;34.67;10.50;;;;;;;;;;4990662;28;20097;-67
2022/01/01 09:32:41;;;;;;;22.90;4.82;;;;;;;;;;4991285;28;20022;-67
2022/01/01 09:35:07;;;;;;;25.83;5.40;;;;;;;;;;4991459;28;20091;-67
2022/01/01 09:37:34;;;;;;;22.73;6.32;;;;;;;;;;4990094;28;20093;-67
2022/01/01 09:40:00;;;;;;;24.63;5.38;;;;;;;;;;4993296;28;20483;-67
2022/01/01 09:42:27;;;;;;;21.63;4.55;;;;;;;;;;4984031;28;20488;-67
2022/01/01 09:44:53;;;;;;;27.45;5.30;;;;;;;;;;4992078;28;20068;-67
2022/01/01 09:47:19;;;;;;;22.05;5.40;;;;;;;;;;4990438;28;20115;-67
2022/01/01 09:49:45;;;;;;;18.52;4.35;;;;;;;;;;4997932;28;20466;-67
2022/01/01 09:52:14;;;;;;;33.47;7.50;;;;;;;;;;4994285;28;20033;-67
2022/01/01 09:54:41;;;;;;;31.48;5.82;;;;;;;;;;4995552;28;20078;-67
2022/01/01 09:57:07;;;;;;;19.83;5.53;;;;;;;;;;4995496;28;20418;-67
2022/01/01 09:59:33;;;;;;;17.00;4.22;;;;;;;;;;4994594;28;20063;-67
2022/01/01 10:01:59;;;;;;;17.98;4.40;;;;;;;;;;4995034;28;20050;-67
2022/01/01 10:04:25;;;;;;;29.13;5.20;;;;;;;;;;4995490;28;20030;-68
2022/01/01 10:07:05;;;;;;;27.02;5.18;;;;;;;;;;4995067;28;20092;-67
2022/01/01 10:09:32;;;;;;;25.55;5.10;;;;;;;;;;4995217;28;20062;-67
2022/01/01 10:11:58;;;;;;;26.60;5.20;;;;;;;;;;4995240;28;20084;-67
2022/01/01 10:14:37;;;;;;;29.98;5.65;;;;;;;;;;4995470;28;20027;-67
2022/01/01 10:17:23;;;;;;;15.30;4.57;;;;;;;;;;4995054;28;20487;-68
2022/01/01 10:19:51;;;;;;;20.85;5.85;;;;;;;;;;4994974;28;20174;-67
2022/01/01 10:22:21;;;;;;;23.42;5.65;;;;;;;;;;4995624;28;20667;-68
2022/01/01 10:27:43;;;;;;;28.40;6.18;;;;;;;;;;4995099;28;20038;-67
2022/01/01 10:30:19;;;;;;;22.80;5.13;;;;;;;;;;4994911;28;20026;-68
2022/01/01 10:33:03;;;;;;;30.80;5.72;;;;;;;;;;4995198;28;20142;-67
2022/01/01 10:35:34;;;;;;;26.67;6.10;;;;;;;;;;4994831;28;20438;-67
2022/01/01 10:38:00;;;;;;;20.33;4.65;;;;;;;;;;4994701;28;20046;-67
2022/01/01 10:40:27;;;;;;;17.60;5.55;;;;;;;;;;4994929;28;20073;-67
2022/01/01 10:42:54;;;;;;;21.50;5.55;;;;;;;;;;4994996;28;20493;-67
2022/01/01 10:45:32;;;;;;;37.20;6.72;;;;;;;;;;4994819;28;20077;-67
2022/01/01 10:48:56;;;;;;;28.67;4.95;;;;;;;;;;4994172;28;20023;-67
2022/01/01 10:51:01;;;;;;;23.48;5.18;;;;;;;;;;4991375;28;20043;-67
2022/01/01 10:53:28;;;;;;;24.52;5.80;;;;;;;;;;4994980;28;20459;-68
2022/01/01 10:55:56;;;;;;;28.05;4.80;;;;;;;;;;4993964;28;20034;-67
2022/01/01 10:58:27;;;;;;;20.55;5.72;;;;;;;;;;4994316;28;20026;-68
2022/01/01 11:00:59;;;;;;;19.73;5.10;;;;;;;;;;4994485;28;20053;-67
2022/01/01 11:03:25;;;;;;;29.42;5.22;;;;;;;;;;4996697;28;20026;-67
2022/01/01 11:06:03;;;;;;;29.10;6.28;;;;;;;;;;4977063;28;20372;-67
2022/01/01 11:08:29;;;;;;;23.90;5.18;;;;;;;;;;4994300;28;20029;-67
2022/01/01 11:10:55;;;;;;;25.65;6.70;;;;;;;;;;4994516;28;20486;-68
2022/01/01 11:13:22;;;;;;;21.33;5.05;;;;;;;;;;4994282;28;20106;-67
2022/01/01 11:15:48;;;;;;;30.25;5.47;;;;;;;;;;4994240;28;20030;-67
2022/01/01 11:18:14;;;;;;;32.45;5.00;;;;;;;;;;4991960;28;20117;-67
2022/01/01 11:20:40;;;;;;;35.40;5.38;;;;;;;;;;4989980;28;20034;-68
2022/01/01 11:23:08;;;;;;;26.75;4.82;;;;;;;;;;4990261;28;20469;-68
2022/01/01 11:25:34;;;;;;;16.23;4.35;;;;;;;;;;4989445;28;20030;-68
2022/01/01 11:28:01;;;;;;;25.00;6.15;;;;;;;;;;4986977;28;20041;-68
2022/01/01 11:30:31;;;;;;;29.80;5.68;;;;;;;;;;4987018;28;20023;-68
2022/01/01 11:33:07;;;;;;;24.77;5.80;;;;;;;;;;4992226;28;20030;-68
2022/01/01 11:35:35;;;;;;;21.98;5.22;;;;;;;;;;4983581;28;20425;-68
2022/01/01 11:38:06;;;;;;;19.73;4.93;;;;;;;;;;4986821;28;20061;-67
2022/01/01 11:40:34;;;;;;;27.80;5.07;;;;;;;;;;4994995;28;20029;-67
2022/01/01 11:43:00;;;;;;;28.60;5.25;;;;;;;;;;4994465;28;20073;-67
2022/01/01 11:45:40;;;;;;;20.40;5.20;;;;;;;;;;4993542;28;20493;-67
2022/01/01 11:48:25;;;;;;;26.70;4.88;;;;;;;;;;4987333;28;20059;-68
2022/01/01 11:50:51;;;;;;;20.17;4.65;;;;;;;;;;4989663;28;20406;-68
2022/01/01 11:53:31;;;;;;;23.70;4.68;;;;;;;;;;4986169;28;20026;-68
2022/01/01 11:56:13;;;;;;;24.15;5.55;;;;;;;;;;4979449;28;20019;-68
2022/01/01 11:58:48;;;;;;;22.08;4.60;;;;;;;;;;4986807;28;20023;-68
2022/01/01 12:01:22;;;;;;;31.33;5.60;;;;;;;;;;4983854;28;20490;-68
2022/01/01 12:03:53;;;;;;;28.45;5.13;;;;;;;;;;4982130;28;20058;-68
2022/01/01 12:06:19;;;;;;;20.00;5.65;;;;;;;;;;4981025;28;20027;-68
2022/01/01 12:08:48;;;;;;;35.78;5.78;;;;;;;;;;4988957;28;20105;-68
2022/01/01 12:11:29;;;;;;;31.33;5.57;;;;;;;;;;4983330;28;20022;-68
2022/01/01 12:13:59;;;;;;;27.35;5.20;;;;;;;;;;4991647;28;20031;-67
2022/01/01 12:16:26;;;;;;;20.75;4.93;;;;;;;;;;4991083;28;20054;-68
2022/01/01 12:19:05;;;;;;;32.55;5.85;;;;;;;;;;4991792;28;20041;-68
2022/01/01 12:21:38;;;;;;;29.48;5.30;;;;;;;;;;4992070;28;20476;-68
2022/01/01 12:24:08;;;;;;;26.27;5.10;;;;;;;;;;4990061;28;20132;-68
2022/01/01 12:26:35;;;;;;;19.23;4.65;;;;;;;;;;4991211;28;20030;-68
2022/01/01 12:29:02;;;;;;;25.67;5.03;;;;;;;;;;4992246;28;20117;-68
2022/01/01 12:31:29;;;;;;;23.23;4.63;;;;;;;;;;4992444;28;20022;-67
2022/01/01 12:34:00;;;;;;;20.02;4.63;;;;;;;;;;4992885;28;20122;-67
2022/01/01 12:36:27;;;;;;;27.90;4.55;;;;;;;;;;4990937;28;20023;-68
2022/01/01 12:38:55;;;;;;;22.10;5.30;;;;;;;;;;4988065;28;20081;-68
2022/01/01 12:41:21;;;;;;;24.77;4.50;;;;;;;;;;4988861;28;20515;-68
2022/01/01 12:43:50;;;;;;;22.73;5.28;;;;;;;;;;4984316;28;20418;-68
2022/01/01 12:46:17;;;;;;;19.27;4.90;;;;;;;;;;4970930;28;20490;-68
2022/01/01 12:48:44;;;;;;;26.55;5.93;;;;;;;;;;4990226;28;20108;-68
2022/01/01 12:51:10;;;;;;;27.38;5.00;;;;;;;;;;4986695;28;20032;-68
2022/01/01 12:53:38;;;;;;;23.48;5.25;;;;;;;;;;4982202;28;20465;-68
2022/01/01 12:56:04;;;;;;;23.73;4.75;;;;;;;;;;4984060;28;20092;-68
2022/01/01 12:58:32;;;;;;;20.92;4.35;;;;;;;;;;4991680;28;20049;-68
2022/01/01 13:01:06;;;;;;;21.13;3.95;;;;;;;;;;4991770;28;20486;-68
2022/01/01 13:03:32;;;;;;;24.83;4.10;;;;;;;;;;4991738;28;20061;-68
2022/01/01 13:05:59;;;;;;;22.27;5.25;;;;;;;;;;4982329;28;20471;-68
2022/01/01 13:08:25;;;;;;;18.85;5.20;;;;;;;;;;4989728;28;20031;-68
2022/01/01 13:10:51;;;;;;;15.98;4.68;;;;;;;;;;4992735;28;20049;-68
2022/01/01 13:13:24;;;;;;;19.70;4.85;;;;;;;;;;4986938;28;20518;-68
2022/01/01 13:15:50;;;;;;;24.88;5.85;;;;;;;;;;4987428;28;20034;-68
2022/01/01 13:18:16;;;;;;;23.98;4.82;;;;;;;;;;4982363;28;20031;-68
2022/01/01 13:20:43;;;;;;;18.88;4.47;;;;;;;;;;4995230;28;20033;-67
2022/01/01 13:23:09;;;;;;;23.20;4.18;;;;;;;;;;4996653;28;20058;-68
2022/01/01 13:25:35;;;;;;;18.48;4.50;;;;;;;;;;4995277;28;20040;-68
2022/01/01 13:28:02;;;;;;;18.98;4.40;;;;;;;;;;4992598;28;20430;-67
2022/01/01 13:30:29;;;;;;;18.42;4.55;;;;;;;;;;5001169;28;20031;-68
2022/01/01 13:32:55;;;;;;;20.60;4.70;;;;;;;;;;4989272;28;20082;-67
2022/01/01 13:35:27;;;;;;;17.55;3.78;;;;;;;;;;4995677;28;20026;-68
2022/01/01 13:37:56;;;;;;;25.48;5.00;;;;;;;;;;4994051;28;20461;-67
2022/01/01 13:40:23;;;;;;;23.13;4.32;;;;;;;;;;4994403;28;20034;-68
2022/01/01 13:42:49;;;;;;;26.38;4.57;;;;;;;;;;4994372;28;20598;-68
2022/01/01 13:45:15;;;;;;;20.02;4.80;;;;;;;;;;4995933;28;20034;-67
2022/01/01 13:47:41;;;;;;;28.33;5.70;;;;;;;;;;4993352;28;20105;-67
2022/01/01 13:50:16;;;;;;;31.25;6.50;;;;;;;;;;4991987;28;20391;-67
2022/01/01 13:52:51;;;;;;;24.27;4.60;;;;;;;;;;4994691;28;20449;-67
2022/01/01 13:55:22;;;;;;;23.77;5.65;;;;;;;;;;4993755;28;20054;-67
2022/01/01 13:57:51;;;;;;;24.42;4.28;;;;;;;;;;4993453;28;20117;-67
2022/01/01 14:00:17;;;;;;;21.88;5.50;;;;;;;;;;4993812;28;20084;-67
2022/01/01 14:02:44;;;;;;;20.60;5.30;;;;;;;;;;4993034;28;20030;-67
2022/01/01 14:05:10;;;;;;;21.73;7.45;;;;;;;;;;4994133;28;20062;-67
2022/01/01 14:07:37;;;;;;;20.35;4.78;;;;;;;;;;4990225;28;20030;-67
2022/01/01 14:10:29;;;;;;;23.13;4.32;;;;;;;;;;4993752;28;20086;-67
2022/01/01 14:12:55;;;;;;;16.98;4.15;;;;;;;;;;4992753;28;20439;-67
2022/01/01 14:15:22;;;;;;;21.55;5.50;;;;;;;;;;4993615;28;20030;-67
2022/01/01 14:18:00;;;;;;;28.13;4.95;;;;;;;;;;4997215;28;20390;-67
2022/01/01 14:20:26;;;;;;;19.83;5.30;;;;;;;;;;4993528;28;20039;-67
2022/01/01 14:22:53;;;;;;;23.95;4.95;;;;;;;;;;4995304;28;20058;-67
2022/01/01 14:25:19;;;;;;;28.23;4.38;;;;;;;;;;4992446;28;20062;-67
2022/01/01 14:27:45;;;;;;;25.75;4.68;;;;;;;;;;4989928;28;20545;-67
2022/01/01 14:30:12;;;;;;;25.00;5.57;;;;;;;;;;4992398;28;20113;-68
2022/01/01 14:32:38;;;;;;;33.17;5.63;;;;;;;;;;4993831;28;20027;-67
2022/01/01 14:35:05;;;;;;;28.70;6.40;;;;;;;;;;4993626;28;20581;-67
2022/01/01 14:37:31;;;;;;;18.55;4.45;;;;;;;;;;4993289;28;20054;-67